This is the latest recevied weather packets stored in our database for station/object KF6ILA. If no packets are shown the sender has not sent any weather packets the latest 10 day(s).
| Time | Temp. | Humidity | Pressure | Rain* | Wind** | Luminosity | Snow |
|---|---|---|---|---|---|---|---|
| 1778435839 | 30° C | 17% | 1016.1 hPa | 0 mm | - | 954 W/m² | - |
| 1778435542 | 30.56° C | 18% | 1016.1 hPa | 0 mm | - | 944 W/m² | - |
| 1778435245 | 31.11° C | 18% | 1016.1 hPa | 0 mm | - | 935 W/m² | - |
| 1778434948 | 31.11° C | 18% | 1015.2 hPa | 0 mm | - | 921 W/m² | - |
| 1778434651 | 31.11° C | 18% | 1015.1 hPa | 0 mm | - | 912 W/m² | - |
| 1778434354 | 31.11° C | 18% | 1015.1 hPa | 0 mm | - | 904 W/m² | - |
| 1778434057 | 30.56° C | 17% | 1015.1 hPa | 0 mm | - | 893 W/m² | - |
| 1778433760 | 30.56° C | 17% | 1015.1 hPa | 0 mm | - | 879 W/m² | - |
| 1778433463 | 30.56° C | 17% | 1015.2 hPa | 0 mm | - | 867 W/m² | - |
| 1778433166 | 30° C | 17% | 1015 hPa | 0 mm | - | 854 W/m² | - |
| 1778432869 | 30° C | 16% | 1015 hPa | 0 mm | - | 840 W/m² | - |
| 1778432572 | 30° C | 17% | 1014.9 hPa | 0 mm | - | 828 W/m² | - |
| 1778431978 | 30.56° C | 16% | 1015 hPa | 0 mm | - | 798 W/m² | - |
| 1778431681 | 30° C | 17% | 1015 hPa | 0 mm | - | 782 W/m² | - |
| 1778431384 | 30° C | 18% | 1014.9 hPa | 0 mm | - | 770 W/m² | - |
| 1778431087 | 30° C | 18% | 1015 hPa | 0 mm | - | 754 W/m² | - |
| 1778430790 | 29.44° C | 20% | 1015.1 hPa | 0 mm | - | 738 W/m² | - |
| 1778429899 | 28.89° C | 18% | 1014.9 hPa | 0 mm | - | 696 W/m² | - |
| 1778429602 | 28.89° C | 18% | 1014.9 hPa | 0 mm | - | 679 W/m² | - |
| 1778429305 | 28.89° C | 19% | 1014.8 hPa | 0 mm | - | 663 W/m² | - |
| 1778428711 | 28.89° C | 20% | 1014.8 hPa | 0 mm | - | 628 W/m² | - |
| 1778428117 | 28.33° C | 20% | 1014.7 hPa | 0 mm | - | 592 W/m² | - |
| 1778427820 | 28.33° C | 18% | 1014.7 hPa | 0 mm | - | 575 W/m² | - |
| 1778424851 | 23.33° C | 24% | 1014 hPa | 0 mm | - | 388 W/m² | - |
| 1778424553 | 22.78° C | 23% | 1014.1 hPa | 0 mm | - | 369 W/m² | - |
* Rain latest hour (hover to see other rain measurements)
** Current wind speed in m/s (hover to see current wind gust speed)